Time;durP1;ratioP1;P1;durP2;ratioP2;P2;SDS_P1;SDS_P2;PMS_P1;PMS_P2;Temp;Humidity;BMP_temperature;BMP_pressure;BME280_temperature;BME280_humidity;BME280_pressure;Samples;Min_cycle;Max_cycle;Signal;HPM_P1;HPM_P2
2022/07/22 00:01:25;;;;;;;;;;;;;;;34.20;19.11;99201.37;4422570;32;34298;-83
2022/07/22 00:03:52;;;;;;;;;;;;;;;34.13;19.04;99203.72;4421822;32;34064;-83
2022/07/22 00:06:19;;;;;;;;;;;;;;;34.12;19.13;99197.47;4422205;32;33557;-86
2022/07/22 00:08:46;;;;;;;;;;;;;;;34.14;19.20;99202.75;4421504;32;34289;-86
2022/07/22 00:11:14;;;;;;;;;;;;;;;34.23;18.79;99196.56;4422075;32;35252;-82
2022/07/22 00:13:41;;;;;;;;;;;;;;;34.13;18.78;99204.59;4421870;32;34217;-83
2022/07/22 00:16:09;;;;;;;;;;;;;;;34.03;18.63;99210.88;4422195;32;34728;-82
2022/07/22 00:18:36;;;;;;;;;;;;;;;34.04;18.43;99193.72;4432619;32;33822;-83
2022/07/22 00:21:04;;;;;;;;;;;;;;;34.09;18.29;99196.88;4427947;32;34135;-83
2022/07/22 00:23:37;;;;;;;;;;;;;;;34.08;18.33;99201.41;4421711;32;34052;-83
2022/07/22 00:26:05;;;;;;;;;;;;;;;34.14;18.26;99202.75;4421902;32;33236;-90
2022/07/22 00:28:32;;;;;;;;;;;;;;;34.06;18.27;99194.47;4423066;32;34237;-87
2022/07/22 00:30:59;;;;;;;;;;;;;;;33.99;18.10;99201.34;4421767;32;35375;-83
2022/07/22 00:33:27;;;;;;;;;;;;;;;33.84;17.89;99200.75;4405182;32;34231;-82
2022/07/22 00:35:54;;;;;;;;;;;;;;;33.83;18.14;99199.03;4423050;32;33261;-85
2022/07/22 00:38:22;;;;;;;;;;;;;;;33.66;18.37;99217.41;4425498;32;34981;-84
2022/07/22 00:40:49;;;;;;;;;;;;;;;33.62;18.18;99221.34;4422207;32;34430;-84
2022/07/22 00:43:16;;;;;;;;;;;;;;;33.36;19.02;99215.34;4420751;32;34537;-84
2022/07/22 00:45:44;;;;;;;;;;;;;;;33.18;19.52;99223.06;4421990;32;33658;-84
2022/07/22 00:48:11;;;;;;;;;;;;;;;33.50;19.35;99229.56;4407729;32;34007;-84
2022/07/22 00:50:39;;;;;;;;;;;;;;;33.38;19.55;99228.69;4407154;32;34762;-84
2022/07/22 00:53:06;;;;;;;;;;;;;;;33.63;19.83;99232.94;4395349;32;32662;-84
2022/07/22 00:55:34;;;;;;;;;;;;;;;33.53;20.25;99232.84;4419531;32;33642;-84
2022/07/22 00:58:02;;;;;;;;;;;;;;;33.60;20.25;99227.81;4430232;32;34058;-85
2022/07/22 01:00:30;;;;;;;;;;;;;;;33.36;20.56;99223.41;4421921;32;34147;-84
2022/07/22 01:02:57;;;;;;;;;;;;;;;33.37;20.59;99226.97;4406844;32;34169;-84
2022/07/22 01:05:24;;;;;;;;;;;;;;;33.50;20.53;99232.25;4407845;32;33082;-85
2022/07/22 01:07:51;;;;;;;;;;;;;;;33.13;20.85;99233.31;4407811;32;33967;-84
2022/07/22 01:10:19;;;;;;;;;;;;;;;32.85;21.34;99231.94;4421778;32;34474;-84
2022/07/22 01:12:46;;;;;;;;;;;;;;;33.33;20.72;99231.72;4421685;32;35019;-83
2022/07/22 01:15:13;;;;;;;;;;;;;;;32.79;20.84;99236.94;4421741;32;33271;-84
2022/07/22 01:17:40;;;;;;;;;;;;;;;33.19;20.24;99237.38;4421466;32;35139;-84
2022/07/22 01:20:10;;;;;;;;;;;;;;;33.23;20.22;99228.09;4421657;32;34481;-85
2022/07/22 01:22:39;;;;;;;;;;;;;;;33.17;19.96;99225.88;4421556;32;34047;-83
2022/07/22 01:25:06;;;;;;;;;;;;;;;33.20;19.80;99230.16;4413897;32;33006;-85
2022/07/22 01:27:34;;;;;;;;;;;;;;;33.30;19.73;99226.63;4421821;32;35170;-84
2022/07/22 01:30:03;;;;;;;;;;;;;;;33.16;19.24;99226.88;4407810;32;34928;-84
2022/07/22 01:32:30;;;;;;;;;;;;;;;33.17;18.96;99220.50;4421035;32;34653;-85
2022/07/22 01:34:57;;;;;;;;;;;;;;;33.23;19.12;99228.09;4427685;32;33521;-88
2022/07/22 01:37:25;;;;;;;;;;;;;;;33.17;19.15;99215.97;4422941;32;35497;-84
2022/07/22 01:39:52;;;;;;;;;;;;;;;33.25;18.87;99226.13;4410348;32;35216;-84
2022/07/22 01:42:19;;;;;;;;;;;;;;;33.23;18.78;99221.88;4406452;32;33977;-86
2022/07/22 01:44:48;;;;;;;;;;;;;;;33.17;18.73;99224.03;4421714;32;34499;-84
2022/07/22 01:47:16;;;;;;;;;;;;;;;33.16;18.73;99218.81;4421912;32;33968;-83
2022/07/22 01:49:43;;;;;;;;;;;;;;;33.06;18.60;99212.44;4407818;32;35322;-85
2022/07/22 01:52:10;;;;;;;;;;;;;;;33.12;18.47;99207.44;4407614;32;33813;-85
2022/07/22 01:54:38;;;;;;;;;;;;;;;33.10;18.57;99205.84;4408061;32;34240;-83
2022/07/22 01:57:05;;;;;;;;;;;;;;;33.12;18.68;99209.28;4421712;32;34082;-85
2022/07/22 01:59:35;;;;;;;;;;;;;;;33.15;18.61;99209.03;4420492;32;35309;-85
2022/07/22 02:02:02;;;;;;;;;;;;;;;33.01;18.51;99211.97;4426309;32;34456;-85
2022/07/22 02:04:30;;;;;;;;;;;;;;;32.98;18.60;99212.22;4436524;32;33045;-85
2022/07/22 02:06:57;;;;;;;;;;;;;;;32.90;18.63;99210.94;4422936;32;34883;-84
2022/07/22 02:09:24;;;;;;;;;;;;;;;32.84;18.77;99219.47;4436721;32;34113;-83
2022/07/22 02:11:52;;;;;;;;;;;;;;;32.88;18.83;99220.97;4418120;32;34240;-84
2022/07/22 02:14:19;;;;;;;;;;;;;;;32.82;19.06;99226.81;4407701;32;33155;-83
2022/07/22 02:16:47;;;;;;;;;;;;;;;32.99;18.94;99222.81;4407874;32;33807;-83
2022/07/22 02:19:14;;;;;;;;;;;;;;;32.97;19.09;99229.31;4421068;32;33938;-84
2022/07/22 02:21:42;;;;;;;;;;;;;;;32.95;19.19;99232.09;4421559;32;34566;-84
2022/07/22 02:24:10;;;;;;;;;;;;;;;32.96;19.28;99224.88;4422176;32;34400;-84
2022/07/22 02:26:38;;;;;;;;;;;;;;;32.88;19.43;99233.50;4436475;32;34994;-84
2022/07/22 02:29:05;;;;;;;;;;;;;;;33.01;19.44;99230.78;4434354;32;34014;-83
2022/07/22 02:31:33;;;;;;;;;;;;;;;32.39;20.47;99240.84;4408530;32;34299;-83
2022/07/22 02:34:00;;;;;;;;;;;;;;;32.97;19.97;99232.00;4436381;32;33271;-81
2022/07/22 02:36:28;;;;;;;;;;;;;;;32.93;19.95;99232.22;4422009;32;33814;-83
2022/07/22 02:38:56;;;;;;;;;;;;;;;32.94;19.92;99238.44;4421199;32;34244;-83
2022/07/22 02:41:24;;;;;;;;;;;;;;;32.83;19.85;99233.88;4420782;32;34790;-82
2022/07/22 02:43:54;;;;;;;;;;;;;;;32.49;19.87;99232.97;4407424;32;33128;-83
2022/07/22 02:46:21;;;;;;;;;;;;;;;32.58;19.96;99228.69;4410141;32;35007;-83
2022/07/22 02:48:49;;;;;;;;;;;;;;;32.63;19.93;99232.75;4405632;32;33581;-83
2022/07/22 02:51:17;;;;;;;;;;;;;;;32.65;19.96;99235.31;4405780;32;34776;-82
2022/07/22 02:53:44;;;;;;;;;;;;;;;32.52;20.17;99232.72;4418952;32;33301;-83
2022/07/22 02:56:11;;;;;;;;;;;;;;;32.54;19.95;99243.34;4420913;32;34305;-83
2022/07/22 02:58:39;;;;;;;;;;;;;;;32.55;19.95;99240.56;4420720;32;34132;-84
2022/07/22 03:01:06;;;;;;;;;;;;;;;32.50;20.00;99242.72;4378862;32;33374;-84
2022/07/22 03:03:38;;;;;;;;;;;;;;;32.42;20.07;99243.31;4410882;32;33803;-82
2022/07/22 03:06:06;;;;;;;;;;;;;;;32.49;20.17;99240.16;4420639;32;34168;-83
2022/07/22 03:08:34;;;;;;;;;;;;;;;32.30;20.37;99236.16;4421219;32;34522;-84
2022/07/22 03:11:01;;;;;;;;;;;;;;;31.83;20.92;99240.56;4420409;32;34932;-84
2022/07/22 03:13:30;;;;;;;;;;;;;;;32.00;20.82;99249.19;4406256;32;33380;-84
2022/07/22 03:15:58;;;;;;;;;;;;;;;32.06;20.87;99246.91;4415685;32;36223;-84
2022/07/22 03:18:25;;;;;;;;;;;;;;;32.08;20.78;99247.66;4412500;32;33788;-84
2022/07/22 03:20:52;;;;;;;;;;;;;;;32.08;20.64;99247.66;4405420;32;34902;-84
2022/07/22 03:23:20;;;;;;;;;;;;;;;32.01;20.78;99240.16;4394958;32;34203;-84
2022/07/22 03:25:48;;;;;;;;;;;;;;;32.07;20.75;99245.09;4391590;32;34176;-85
2022/07/22 03:28:15;;;;;;;;;;;;;;;32.04;20.69;99240.81;4405507;32;34394;-84
2022/07/22 03:30:42;;;;;;;;;;;;;;;31.93;20.66;99255.00;4383691;32;33296;-84
2022/07/22 03:33:10;;;;;;;;;;;;;;;31.84;20.73;99254.81;4403230;32;33208;-84
2022/07/22 03:35:37;;;;;;;;;;;;;;;31.90;20.80;99257.94;4397745;32;34567;-84
2022/07/22 03:38:05;;;;;;;;;;;;;;;31.91;20.95;99256.97;4420689;32;35205;-84
2022/07/22 03:40:34;;;;;;;;;;;;;;;31.88;21.25;99267.91;4403810;32;34038;-84
2022/07/22 03:43:02;;;;;;;;;;;;;;;32.02;21.40;99261.53;4409808;32;33162;-84
2022/07/22 03:45:30;;;;;;;;;;;;;;;32.01;21.52;99265.16;4405996;32;35083;-85
2022/07/22 03:47:57;;;;;;;;;;;;;;;31.92;21.53;99265.84;4420745;32;35207;-84
2022/07/22 03:50:25;;;;;;;;;;;;;;;31.67;21.81;99262.28;4427404;32;34264;-83
2022/07/22 03:52:54;;;;;;;;;;;;;;;31.81;21.84;99266.59;4419911;32;33484;-84
2022/07/22 03:55:22;;;;;;;;;;;;;;;31.97;22.12;99266.34;4420424;32;35004;-85
2022/07/22 03:57:49;;;;;;;;;;;;;;;31.54;22.89;99266.78;4420499;32;34428;-84
2022/07/22 04:00:17;;;;;;;;;;;;;;;31.10;23.80;99262.75;4405857;32;33460;-83
2022/07/22 04:02:45;;;;;;;;;;;;;;;31.62;23.26;99261.72;4420011;32;34461;-84
2022/07/22 04:05:12;;;;;;;;;;;;;;;31.77;22.95;99254.41;4405342;32;33291;-84
2022/07/22 04:07:39;;;;;;;;;;;;;;;31.46;23.58;99261.13;4420288;32;33963;-87
2022/07/22 04:10:08;;;;;;;;;;;;;;;31.89;23.38;99264.25;4419141;32;34014;-88
2022/07/22 04:12:38;;;;;;;;;;;;;;;31.90;23.18;99260.63;4406560;32;34008;-89
2022/07/22 04:15:07;;;;;;;;;;;;;;;32.29;22.90;99255.91;4406229;32;34340;-87
2022/07/22 04:17:35;;;;;;;;;;;;;;;32.42;23.02;99251.34;4407861;32;34320;-87
2022/07/22 04:20:03;;;;;;;;;;;;;;;32.73;23.01;99254.34;4435508;32;34835;-87
2022/07/22 04:22:31;;;;;;;;;;;;;;;33.04;22.54;99247.50;4420394;32;33042;-85
2022/07/22 04:24:59;;;;;;;;;;;;;;;33.24;22.27;99248.59;4420645;32;34584;-85
2022/07/22 04:27:26;;;;;;;;;;;;;;;33.17;23.17;99258.97;4415936;32;34442;-82
2022/07/22 04:29:53;;;;;;;;;;;;;;;33.78;22.37;99246.97;4407791;32;34930;-84
2022/07/22 04:32:20;;;;;;;;;;;;;;;34.19;22.38;99246.25;4408394;32;33448;-85
2022/07/22 04:34:49;;;;;;;;;;;;;;;34.40;22.08;99251.69;4408436;32;33720;-85
2022/07/22 04:37:16;;;;;;;;;;;;;;;34.69;21.92;99246.50;4422258;32;34383;-86
2022/07/22 04:39:44;;;;;;;;;;;;;;;35.03;22.02;99247.16;4421552;32;33803;-84
2022/07/22 04:42:11;;;;;;;;;;;;;;;35.21;21.35;99238.47;4421586;32;32927;-85
2022/07/22 04:44:39;;;;;;;;;;;;;;;35.39;21.57;99246.78;4421016;32;34819;-85
2022/07/22 04:47:08;;;;;;;;;;;;;;;34.78;22.18;99244.88;4418535;32;35401;-86
2022/07/22 04:49:36;;;;;;;;;;;;;;;35.24;22.15;99255.22;4412187;32;34171;-84
2022/07/22 04:52:05;;;;;;;;;;;;;;;35.81;21.65;99248.31;4421989;32;33192;-84
2022/07/22 04:54:35;;;;;;;;;;;;;;;35.65;21.60;99248.00;4396395;32;35044;-84
2022/07/22 04:57:02;;;;;;;;;;;;;;;36.15;21.38;99247.97;4421796;32;34418;-85
2022/07/22 04:59:29;;;;;;;;;;;;;;;35.74;20.84;99252.56;4421695;32;34430;-85
2022/07/22 05:01:57;;;;;;;;;;;;;;;35.46;21.20;99242.50;4421564;32;33246;-84
2022/07/22 05:04:25;;;;;;;;;;;;;;;34.92;21.41;99243.66;4420981;32;33438;-84
2022/07/22 05:06:52;;;;;;;;;;;;;;;34.20;21.82;99247.09;4408219;32;34431;-84
2022/07/22 05:09:20;;;;;;;;;;;;;;;34.85;21.72;99252.31;4416127;32;34241;-84
2022/07/22 05:11:47;;;;;;;;;;;;;;;34.73;21.77;99247.97;4421980;32;33317;-85
2022/07/22 05:14:16;;;;;;;;;;;;;;;34.94;21.82;99255.19;4408391;32;33935;-84
2022/07/22 05:16:44;;;;;;;;;;;;;;;36.24;21.24;99255.19;4421642;32;34470;-84
2022/07/22 05:19:11;;;;;;;;;;;;;;;36.49;21.09;99263.78;4395613;32;34226;-84
2022/07/22 05:21:39;;;;;;;;;;;;;;;36.28;21.05;99264.72;4408169;32;33443;-84
2022/07/22 05:24:07;;;;;;;;;;;;;;;34.48;23.31;99259.97;4422063;32;34887;-85
2022/07/22 05:26:35;;;;;;;;;;;;;;;34.96;22.70;99256.72;4421529;32;34283;-84
2022/07/22 05:29:02;;;;;;;;;;;;;;;35.28;22.38;99269.28;4421892;32;34388;-84
2022/07/22 05:31:30;;;;;;;;;;;;;;;35.44;21.28;99271.47;4408169;32;33030;-84
2022/07/22 05:33:57;;;;;;;;;;;;;;;35.03;20.56;99271.41;4421510;32;34002;-84
2022/07/22 05:36:24;;;;;;;;;;;;;;;34.54;22.89;99278.28;4421424;32;34917;-84
2022/07/22 05:38:54;;;;;;;;;;;;;;;34.93;22.54;99275.00;4407846;32;33714;-84
2022/07/22 05:41:22;;;;;;;;;;;;;;;33.93;23.25;99282.50;4421279;32;33291;-84
2022/07/22 05:43:50;;;;;;;;;;;;;;;32.42;24.78;99280.00;4421809;32;34211;-88
2022/07/22 05:46:18;;;;;;;;;;;;;;;33.56;23.83;99280.12;4407183;32;33570;-84
2022/07/22 05:48:45;;;;;;;;;;;;;;;34.26;22.22;99277.06;4407634;32;32692;-84
2022/07/22 05:51:12;;;;;;;;;;;;;;;33.75;23.17;99279.47;4422085;32;33500;-84
2022/07/22 05:53:41;;;;;;;;;;;;;;;34.85;21.41;99279.25;4395389;32;32967;-84
2022/07/22 05:56:10;;;;;;;;;;;;;;;35.39;18.19;99273.72;4407706;32;35243;-84
2022/07/22 05:58:38;;;;;;;;;;;;;;;35.78;18.64;99278.28;4407924;32;33865;-86
2022/07/22 06:01:06;;;;;;;;;;;;;;;36.18;17.59;99288.19;4421901;32;34041;-84
2022/07/22 06:03:33;;;;;;;;;;;;;;;36.03;17.83;99281.50;4408829;32;34869;-84
2022/07/22 06:06:02;;;;;;;;;;;;;;;35.00;18.40;99273.53;4407749;32;35065;-87
2022/07/22 06:08:29;;;;;;;;;;;;;;;35.06;18.01;99273.00;4421669;32;34315;-84
2022/07/22 06:10:57;;;;;;;;;;;;;;;36.32;18.97;99272.53;4421178;32;32792;-83
2022/07/22 06:13:24;;;;;;;;;;;;;;;36.48;18.39;99273.72;4420407;32;35013;-83
2022/07/22 06:15:51;;;;;;;;;;;;;;;35.88;18.93;99280.12;4408258;32;35025;-83
2022/07/22 06:18:20;;;;;;;;;;;;;;;36.07;17.60;99282.91;4420015;32;33897;-84
2022/07/22 06:20:47;;;;;;;;;;;;;;;36.67;18.02;99280.06;4407242;32;33203;-84
2022/07/22 06:23:14;;;;;;;;;;;;;;;35.74;17.91;99284.94;4420851;32;34586;-83
2022/07/22 06:25:42;;;;;;;;;;;;;;;36.55;17.51;99282.09;4431454;32;34409;-83
2022/07/22 06:28:11;;;;;;;;;;;;;;;36.10;18.01;99290.69;4432138;32;34180;-83
2022/07/22 06:30:39;;;;;;;;;;;;;;;37.08;16.43;99270.78;4432606;32;33281;-83
2022/07/22 06:33:07;;;;;;;;;;;;;;;37.63;17.43;99270.88;4406737;32;33058;-88
2022/07/22 06:35:35;;;;;;;;;;;;;;;37.44;16.08;99276.37;4409954;32;34883;-85
2022/07/22 06:38:03;;;;;;;;;;;;;;;37.45;15.84;99278.06;4430684;32;33618;-84
2022/07/22 06:40:34;;;;;;;;;;;;;;;37.36;16.82;99284.34;4408215;32;33759;-84
2022/07/22 06:43:11;;;;;;;;;;;;;;;37.57;16.22;99279.56;4430199;32;34041;-90
2022/07/22 06:45:41;;;;;;;;;;;;;;;37.78;14.77;99283.87;4436507;32;34468;-88
2022/07/22 06:48:09;;;;;;;;;;;;;;;37.32;13.47;99280.25;4433267;32;33730;-86
2022/07/22 06:50:38;;;;;;;;;;;;;;;37.05;14.26;99276.47;4436939;32;34263;-86
2022/07/22 06:53:08;;;;;;;;;;;;;;;37.63;14.23;99276.28;4436145;32;34253;-85
2022/07/22 06:55:36;;;;;;;;;;;;;;;38.14;13.81;99274.81;4429141;32;34509;-87
2022/07/22 06:58:04;;;;;;;;;;;;;;;38.40;13.64;99269.50;4417373;32;34100;-87
2022/07/22 07:00:31;;;;;;;;;;;;;;;38.21;13.21;99267.78;4421615;32;33498;-87
2022/07/22 07:03:00;;;;;;;;;;;;;;;38.45;13.27;99267.22;4434902;32;34031;-90
2022/07/22 07:05:48;;;;;;;;;;;;;;;37.91;13.79;99271.72;4432579;32;34239;-85
2022/07/22 07:08:16;;;;;;;;;;;;;;;38.04;13.24;99265.09;4398204;32;33102;-85
2022/07/22 07:10:44;;;;;;;;;;;;;;;38.24;12.99;99274.75;4422625;32;33503;-85
2022/07/22 07:13:11;;;;;;;;;;;;;;;37.85;14.07;99269.59;4424074;32;33525;-84
2022/07/22 07:15:39;;;;;;;;;;;;;;;38.14;14.11;99273.97;4421697;32;34117;-85
2022/07/22 07:18:07;;;;;;;;;;;;;;;38.35;13.45;99265.59;4429357;32;34222;-84
2022/07/22 07:20:34;;;;;;;;;;;;;;;38.06;13.86;99265.78;4420846;32;34154;-85
2022/07/22 07:23:03;;;;;;;;;;;;;;;38.24;13.25;99268.50;4435449;32;34940;-85
2022/07/22 07:25:32;;;;;;;;;;;;;;;38.71;14.77;99269.06;4422896;32;35325;-85
2022/07/22 07:28:00;;;;;;;;;;;;;;;38.03;14.02;99266.91;4421003;32;33541;-84
2022/07/22 07:30:29;;;;;;;;;;;;;;;38.95;13.22;99268.44;4428859;32;31802;-84
2022/07/22 07:32:56;;;;;;;;;;;;;;;38.47;13.34;99268.91;4421071;32;33955;-81
2022/07/22 07:35:24;;;;;;;;;;;;;;;38.93;12.64;99262.31;4420410;32;34516;-81
2022/07/22 07:37:57;;;;;;;;;;;;;;;38.97;12.56;99261.00;4416311;32;34589;-85
2022/07/22 07:40:28;;;;;;;;;;;;;;;37.88;12.99;99263.88;4429842;32;33181;-83
2022/07/22 07:42:56;;;;;;;;;;;;;;;37.84;13.33;99265.16;4430091;32;34193;-88
2022/07/22 07:45:30;;;;;;;;;;;;;;;37.90;13.76;99269.16;4409115;32;34396;-84
2022/07/22 07:47:57;;;;;;;;;;;;;;;37.90;13.34;99266.47;4420004;32;34959;-83
2022/07/22 07:50:25;;;;;;;;;;;;;;;37.36;12.53;99273.53;4421133;32;33898;-83
2022/07/22 07:52:53;;;;;;;;;;;;;;;38.25;13.30;99276.44;4420281;32;34048;-84
2022/07/22 07:55:20;;;;;;;;;;;;;;;37.78;13.49;99273.06;4413109;32;34395;-85
2022/07/22 07:57:49;;;;;;;;;;;;;;;36.73;14.33;99271.41;4409590;32;33769;-84
2022/07/22 08:00:20;;;;;;;;;;;;;;;35.76;15.62;99272.19;4409601;32;33363;-85
2022/07/22 08:02:49;;;;;;;;;;;;;;;37.48;15.02;99272.38;4420202;32;34069;-84
2022/07/22 08:05:21;;;;;;;;;;;;;;;37.25;15.38;99261.91;4419225;32;34363;-84
2022/07/22 08:07:50;;;;;;;;;;;;;;;36.38;16.99;99267.44;4422272;32;33960;-85
2022/07/22 08:10:18;;;;;;;;;;;;;;;36.40;17.10;99270.81;4410582;32;32490;-85
2022/07/22 08:13:07;;;;;;;;;;;;;;;37.19;15.72;99267.03;4415856;32;34923;-86
2022/07/22 08:15:35;;;;;;;;;;;;;;;37.51;15.61;99266.66;4437692;32;33985;-85
2022/07/22 08:18:04;;;;;;;;;;;;;;;37.73;15.59;99266.25;4423682;32;34275;-85
2022/07/22 08:20:32;;;;;;;;;;;;;;;38.32;14.75;99255.03;4437588;32;33312;-85
2022/07/22 08:22:59;;;;;;;;;;;;;;;36.43;16.64;99258.91;4423892;32;34978;-85
2022/07/22 08:25:28;;;;;;;;;;;;;;;36.75;16.75;99253.22;4424222;32;34319;-85
2022/07/22 08:27:57;;;;;;;;;;;;;;;38.21;15.25;99259.66;4423670;32;33394;-85
2022/07/22 08:30:27;;;;;;;;;;;;;;;38.65;14.81;99256.19;4424049;32;33759;-85
2022/07/22 08:32:55;;;;;;;;;;;;;;;38.08;14.33;99261.91;4437588;32;34181;-85
2022/07/22 08:35:23;;;;;;;;;;;;;;;38.10;15.34;99259.03;4423582;32;35048;-85
2022/07/22 08:37:50;;;;;;;;;;;;;;;38.50;14.09;99253.19;4423581;32;34978;-86
2022/07/22 08:40:18;;;;;;;;;;;;;;;38.58;13.07;99260.53;4437363;32;33542;-85
2022/07/22 08:42:47;;;;;;;;;;;;;;;38.09;14.33;99266.31;4421759;32;35176;-84
2022/07/22 08:45:15;;;;;;;;;;;;;;;38.81;13.79;99260.91;4410843;32;34280;-85
2022/07/22 08:47:46;;;;;;;;;;;;;;;36.18;15.07;99263.00;4416751;32;34265;-87
2022/07/22 08:50:13;;;;;;;;;;;;;;;36.95;15.39;99260.28;4408267;32;32931;-86
2022/07/22 08:52:42;;;;;;;;;;;;;;;36.14;16.05;99269.69;4408216;32;34206;-87
2022/07/22 08:55:09;;;;;;;;;;;;;;;36.70;15.83;99261.72;4408131;32;34082;-86
2022/07/22 08:57:37;;;;;;;;;;;;;;;36.91;16.63;99255.31;4422589;32;34303;-87
2022/07/22 09:00:11;;;;;;;;;;;;;;;37.13;16.64;99257.69;4437589;32;33560;-87
2022/07/22 09:02:40;;;;;;;;;;;;;;;37.94;16.21;99257.03;4424219;32;34114;-86
2022/07/22 09:05:09;;;;;;;;;;;;;;;37.72;16.39;99264.53;4408328;32;34112;-86
2022/07/22 09:07:58;;;;;;;;;;;;;;;36.86;16.98;99261.16;4413164;32;35255;-84
2022/07/22 09:10:32;;;;;;;;;;;;;;;38.11;16.10;99266.16;4434933;32;33228;-87
2022/07/22 09:13:03;;;;;;;;;;;;;;;38.52;15.29;99255.72;4423365;32;34171;-87
2022/07/22 09:15:31;;;;;;;;;;;;;;;38.63;14.80;99252.75;4417186;32;35203;-89
2022/07/22 09:17:59;;;;;;;;;;;;;;;38.90;15.71;99251.78;4416419;32;33888;-86
2022/07/22 09:20:32;;;;;;;;;;;;;;;38.93;14.87;99246.91;4423212;32;34289;-85
2022/07/22 09:23:18;;;;;;;;;;;;;;;38.86;15.45;99245.00;4421555;32;33552;-87
2022/07/22 09:25:47;;;;;;;;;;;;;;;39.22;15.45;99255.72;4408334;32;34317;-87
2022/07/22 09:28:18;;;;;;;;;;;;;;;38.12;16.14;99243.50;4421910;32;34912;-86
2022/07/22 09:30:53;;;;;;;;;;;;;;;38.93;15.24;99243.34;4408892;32;34232;-85
2022/07/22 09:33:23;;;;;;;;;;;;;;;38.66;15.35;99247.88;4425748;32;34370;-87
2022/07/22 09:35:51;;;;;;;;;;;;;;;39.16;15.41;99249.91;4423081;32;32571;-86
2022/07/22 09:38:26;;;;;;;;;;;;;;;39.47;14.79;99245.84;4423241;32;34254;-87
2022/07/22 09:40:53;;;;;;;;;;;;;;;39.65;15.19;99250.16;4423451;32;33325;-86
2022/07/22 09:43:22;;;;;;;;;;;;;;;39.21;15.68;99245.87;4437159;32;33886;-86
2022/07/22 09:45:56;;;;;;;;;;;;;;;37.60;17.07;99241.41;4428264;32;33607;-86
2022/07/22 09:48:29;;;;;;;;;;;;;;;38.52;16.80;99239.47;4408438;32;35131;-86
2022/07/22 09:50:57;;;;;;;;;;;;;;;39.54;15.59;99236.88;4421541;32;33476;-85
2022/07/22 09:53:30;;;;;;;;;;;;;;;39.17;16.04;99235.38;4407737;32;34101;-86
2022/07/22 09:55:59;;;;;;;;;;;;;;;39.47;16.11;99241.25;4423343;32;34266;-85
2022/07/22 09:58:27;;;;;;;;;;;;;;;38.50;16.67;99242.34;4423040;32;33680;-86
2022/07/22 10:00:57;;;;;;;;;;;;;;;39.46;16.35;99227.88;4423334;32;33399;-85
2022/07/22 10:03:25;;;;;;;;;;;;;;;39.83;17.06;99243.78;4421914;32;34376;-85
2022/07/22 10:05:52;;;;;;;;;;;;;;;39.86;16.14;99229.91;4421741;32;35719;-87
2022/07/22 10:08:21;;;;;;;;;;;;;;;39.91;16.78;99230.25;4407593;32;34975;-85
2022/07/22 10:10:49;;;;;;;;;;;;;;;40.15;15.58;99215.00;4409484;32;34358;-83
2022/07/22 10:13:16;;;;;;;;;;;;;;;40.00;16.64;99237.38;4436938;32;33305;-86
2022/07/22 10:15:44;;;;;;;;;;;;;;;40.79;15.24;99222.28;4423129;32;35117;-85
2022/07/22 10:18:13;;;;;;;;;;;;;;;40.87;15.07;99216.00;4429305;32;34349;-85
2022/07/22 10:20:42;;;;;;;;;;;;;;;40.04;16.21;99225.16;4421303;32;32645;-85
2022/07/22 10:23:11;;;;;;;;;;;;;;;40.32;16.04;99212.12;4423120;32;34866;-84
2022/07/22 10:25:50;;;;;;;;;;;;;;;39.15;17.43;99212.97;4431033;32;34189;-85
2022/07/22 10:28:27;;;;;;;;;;;;;;;39.17;17.51;99213.66;4436780;32;35103;-84
2022/07/22 10:31:13;;;;;;;;;;;;;;;39.72;17.56;99219.69;4422219;32;33444;-85
2022/07/22 10:33:41;;;;;;;;;;;;;;;39.90;18.36;99214.97;4416456;32;32524;-84
2022/07/22 10:36:09;;;;;;;;;;;;;;;39.85;18.02;99225.47;4428282;32;34369;-88
2022/07/22 10:38:36;;;;;;;;;;;;;;;40.05;18.42;99210.56;4427691;32;33814;-84
2022/07/22 10:41:06;;;;;;;;;;;;;;;38.59;19.35;99211.59;4408266;32;32732;-87
2022/07/22 10:43:40;;;;;;;;;;;;;;;38.64;19.53;99211.97;4409757;32;34532;-86
2022/07/22 10:46:08;;;;;;;;;;;;;;;38.53;19.10;99212.25;4436502;32;35234;-85
2022/07/22 10:48:35;;;;;;;;;;;;;;;37.21;20.82;99201.03;4436891;32;34391;-86
2022/07/22 10:51:05;;;;;;;;;;;;;;;38.58;19.41;99196.34;4426160;32;32985;-85
2022/07/22 10:53:46;;;;;;;;;;;;;;;38.27;19.13;99203.19;4408281;32;34589;-88
2022/07/22 10:56:17;;;;;;;;;;;;;;;38.74;19.00;99202.88;4407508;32;34687;-86
2022/07/22 10:58:48;;;;;;;;;;;;;;;39.15;19.16;99194.00;4421100;32;34689;-85
2022/07/22 11:01:16;;;;;;;;;;;;;;;39.18;19.04;99204.50;4407291;32;34014;-86
2022/07/22 11:03:44;;;;;;;;;;;;;;;38.84;18.74;99196.38;4413621;32;34979;-86
2022/07/22 11:06:25;;;;;;;;;;;;;;;38.18;19.38;99197.69;4407217;32;34016;-87
2022/07/22 11:08:57;;;;;;;;;;;;;;;39.52;18.22;99194.69;4420657;32;34062;-87
2022/07/22 11:11:34;;;;;;;;;;;;;;;39.64;17.17;99188.75;4411078;32;33344;-87
2022/07/22 11:14:02;;;;;;;;;;;;;;;39.55;17.49;99184.34;4421795;32;34189;-87
2022/07/22 11:16:29;;;;;;;;;;;;;;;40.50;17.77;99179.38;4436247;32;35300;-86
2022/07/22 11:18:58;;;;;;;;;;;;;;;40.89;16.76;99181.34;4422565;32;34309;-86
2022/07/22 11:21:27;;;;;;;;;;;;;;;40.32;17.29;99184.97;4409667;32;33459;-86
2022/07/22 11:23:57;;;;;;;;;;;;;;;39.75;17.12;99184.06;4409739;32;34389;-86
2022/07/22 11:26:33;;;;;;;;;;;;;;;40.31;16.99;99177.84;4423991;32;34064;-86
2022/07/22 11:29:00;;;;;;;;;;;;;;;40.57;16.19;99174.94;4406504;32;34116;-86
2022/07/22 11:31:28;;;;;;;;;;;;;;;40.51;17.50;99175.63;4406802;32;33420;-86
2022/07/22 11:34:06;;;;;;;;;;;;;;;40.95;16.77;99160.72;4420704;32;34018;-86
2022/07/22 11:36:35;;;;;;;;;;;;;;;41.32;15.59;99166.38;4422698;32;34464;-87
2022/07/22 11:39:03;;;;;;;;;;;;;;;41.44;15.30;99166.00;4420890;32;34107;-85
2022/07/22 11:41:31;;;;;;;;;;;;;;;40.50;15.82;99163.06;4404845;32;33840;-86
2022/07/22 11:43:59;;;;;;;;;;;;;;;41.19;14.97;99165.28;4422316;32;35085;-86
2022/07/22 11:46:27;;;;;;;;;;;;;;;41.53;14.84;99160.34;4408615;32;35319;-86
2022/07/22 11:48:56;;;;;;;;;;;;;;;40.68;15.51;99153.88;4407298;32;34301;-84
2022/07/22 11:51:27;;;;;;;;;;;;;;;40.57;15.47;99149.63;4412931;32;34156;-86
2022/07/22 11:53:54;;;;;;;;;;;;;;;40.57;16.16;99153.19;4423887;32;34169;-86
2022/07/22 11:56:22;;;;;;;;;;;;;;;41.28;15.15;99156.03;4437489;32;34041;-85
2022/07/22 11:58:50;;;;;;;;;;;;;;;39.96;15.85;99140.97;4408707;32;790432;-89
2022/07/22 12:01:17;;;;;;;;;;;;;;;40.71;15.28;99142.66;4429976;32;33235;-90
2022/07/22 12:03:46;;;;;;;;;;;;;;;40.75;15.09;99144.00;4423568;32;34557;-91
2022/07/22 12:06:14;;;;;;;;;;;;;;;40.84;15.34;99132.06;4395673;32;34134;-89
2022/07/22 12:08:51;;;;;;;;;;;;;;;41.25;15.04;99134.63;4408253;32;34859;-90
2022/07/22 12:11:20;;;;;;;;;;;;;;;41.08;16.29;99132.00;4402389;32;34132;-88
2022/07/22 12:13:50;;;;;;;;;;;;;;;40.26;15.93;99130.47;4408470;32;34448;-89
2022/07/22 12:16:27;;;;;;;;;;;;;;;41.14;15.83;99121.44;4408619;32;34411;-90
2022/07/22 12:18:59;;;;;;;;;;;;;;;40.95;15.81;99118.06;4419803;32;33955;-90
2022/07/22 12:21:27;;;;;;;;;;;;;;;41.30;15.51;99121.34;4423695;32;33631;-90
2022/07/22 12:23:56;;;;;;;;;;;;;;;41.13;15.27;99117.03;4424222;32;34561;-90
2022/07/22 12:26:40;;;;;;;;;;;;;;;40.03;16.51;99106.69;4405448;32;34194;-88
2022/07/22 12:29:21;;;;;;;;;;;;;;;41.15;15.98;99112.25;4437834;32;33580;-89
2022/07/22 12:31:50;;;;;;;;;;;;;;;41.51;14.73;99105.25;4407627;32;33354;-89
2022/07/22 12:34:29;;;;;;;;;;;;;;;41.78;14.55;99109.28;4422095;32;34206;-89
2022/07/22 12:36:56;;;;;;;;;;;;;;;41.22;15.21;99107.78;4422175;32;35191;-92
2022/07/22 12:39:23;;;;;;;;;;;;;;;40.66;15.89;99101.56;4410703;32;34148;-88
2022/07/22 12:41:52;;;;;;;;;;;;;;;40.34;16.08;99100.59;4434342;32;32950;-87
2022/07/22 12:44:20;;;;;;;;;;;;;;;40.25;16.06;99099.75;4433747;32;34260;-91
2022/07/22 12:46:48;;;;;;;;;;;;;;;40.81;15.27;99094.37;4407735;32;35400;-92
2022/07/22 12:49:16;;;;;;;;;;;;;;;40.64;15.95;99087.28;4407572;32;32988;-89
2022/07/22 12:52:02;;;;;;;;;;;;;;;41.06;15.40;99093.25;4411724;32;33414;-89
2022/07/22 12:54:30;;;;;;;;;;;;;;;41.33;15.99;99088.31;4424071;32;34899;-89
2022/07/22 12:56:57;;;;;;;;;;;;;;;40.71;15.52;99082.84;4421729;32;34488;-90